sensor_id;sensor_type;location;lat;lon;timestamp;temperature;humidity
7942;HTU21D;4016;50.758;7.150;2022-08-21T00:02:27;14.99;106.38
7942;HTU21D;4016;50.758;7.150;2022-08-21T00:07:29;14.94;107.48
7942;HTU21D;4016;50.758;7.150;2022-08-21T00:12:30;14.84;107.73
7942;HTU21D;4016;50.758;7.150;2022-08-21T00:17:31;14.77;108.61
7942;HTU21D;4016;50.758;7.150;2022-08-21T00:22:31;14.68;108.75
7942;HTU21D;4016;50.758;7.150;2022-08-21T00:27:32;14.60;108.97
7942;HTU21D;4016;50.758;7.150;2022-08-21T00:32:33;14.59;109.50
7942;HTU21D;4016;50.758;7.150;2022-08-21T00:37:34;14.52;110.22
7942;HTU21D;4016;50.758;7.150;2022-08-21T00:42:34;14.48;110.51
7942;HTU21D;4016;50.758;7.150;2022-08-21T00:47:35;14.39;110.68
7942;HTU21D;4016;50.758;7.150;2022-08-21T00:52:37;14.33;111.20
7942;HTU21D;4016;50.758;7.150;2022-08-21T00:57:44;14.26;111.10
7942;HTU21D;4016;50.758;7.150;2022-08-21T01:02:46;14.21;111.46
7942;HTU21D;4016;50.758;7.150;2022-08-21T01:07:46;14.15;111.97
7942;HTU21D;4016;50.758;7.150;2022-08-21T01:12:47;14.09;112.61
7942;HTU21D;4016;50.758;7.150;2022-08-21T01:17:48;14.00;112.19
7942;HTU21D;4016;50.758;7.150;2022-08-21T01:22:49;13.95;112.08
7942;HTU21D;4016;50.758;7.150;2022-08-21T01:27:49;13.90;111.99
7942;HTU21D;4016;50.758;7.150;2022-08-21T01:32:50;13.90;112.09
7942;HTU21D;4016;50.758;7.150;2022-08-21T01:37:52;13.80;112.65
7942;HTU21D;4016;50.758;7.150;2022-08-21T01:42:52;13.75;113.00
7942;HTU21D;4016;50.758;7.150;2022-08-21T01:47:53;13.69;112.86
7942;HTU21D;4016;50.758;7.150;2022-08-21T01:52:54;13.76;113.17
7942;HTU21D;4016;50.758;7.150;2022-08-21T01:57:54;13.64;113.62
7942;HTU21D;4016;50.758;7.150;2022-08-21T02:02:55;13.56;113.68
7942;HTU21D;4016;50.758;7.150;2022-08-21T02:07:56;13.48;113.61
7942;HTU21D;4016;50.758;7.150;2022-08-21T02:12:58;13.41;112.80
7942;HTU21D;4016;50.758;7.150;2022-08-21T02:18:00;13.32;113.22
7942;HTU21D;4016;50.758;7.150;2022-08-21T02:23:02;13.29;113.43
7942;HTU21D;4016;50.758;7.150;2022-08-21T02:28:05;13.24;113.34
7942;HTU21D;4016;50.758;7.150;2022-08-21T02:33:07;13.20;114.09
7942;HTU21D;4016;50.758;7.150;2022-08-21T02:38:12;13.18;114.15
7942;HTU21D;4016;50.758;7.150;2022-08-21T02:43:13;13.11;114.03
7942;HTU21D;4016;50.758;7.150;2022-08-21T02:48:19;13.07;114.24
7942;HTU21D;4016;50.758;7.150;2022-08-21T02:53:20;13.05;114.70
7942;HTU21D;4016;50.758;7.150;2022-08-21T02:58:24;12.99;114.99
7942;HTU21D;4016;50.758;7.150;2022-08-21T03:03:25;12.91;115.36
7942;HTU21D;4016;50.758;7.150;2022-08-21T03:08:27;12.86;115.96
7942;HTU21D;4016;50.758;7.150;2022-08-21T03:13:27;12.77;115.83
7942;HTU21D;4016;50.758;7.150;2022-08-21T03:18:28;12.70;116.00
7942;HTU21D;4016;50.758;7.150;2022-08-21T03:23:28;12.69;115.98
7942;HTU21D;4016;50.758;7.150;2022-08-21T03:28:30;12.67;116.28
7942;HTU21D;4016;50.758;7.150;2022-08-21T03:33:31;12.61;116.38
7942;HTU21D;4016;50.758;7.150;2022-08-21T03:38:34;12.56;116.62
7942;HTU21D;4016;50.758;7.150;2022-08-21T03:43:36;12.51;117.24
7942;HTU21D;4016;50.758;7.150;2022-08-21T03:48:38;12.48;118.08
7942;HTU21D;4016;50.758;7.150;2022-08-21T03:53:39;12.43;118.18
7942;HTU21D;4016;50.758;7.150;2022-08-21T03:58:39;12.38;118.11
7942;HTU21D;4016;50.758;7.150;2022-08-21T04:03:40;12.37;118.22
7942;HTU21D;4016;50.758;7.150;2022-08-21T04:08:40;12.32;118.37
7942;HTU21D;4016;50.758;7.150;2022-08-21T04:13:43;12.29;118.93
7942;HTU21D;4016;50.758;7.150;2022-08-21T04:18:43;12.23;118.99
7942;HTU21D;4016;50.758;7.150;2022-08-21T04:23:43;12.20;118.89
7942;HTU21D;4016;50.758;7.150;2022-08-21T04:28:44;12.17;118.99
7942;HTU21D;4016;50.758;7.150;2022-08-21T04:33:44;12.23;118.99
7942;HTU21D;4016;50.758;7.150;2022-08-21T04:38:45;12.16;118.99
7942;HTU21D;4016;50.758;7.150;2022-08-21T04:43:45;12.15;118.99
7942;HTU21D;4016;50.758;7.150;2022-08-21T04:48:45;12.10;118.99
7942;HTU21D;4016;50.758;7.150;2022-08-21T04:53:52;12.08;118.99
7942;HTU21D;4016;50.758;7.150;2022-08-21T04:58:56;12.11;118.99
7942;HTU21D;4016;50.758;7.150;2022-08-21T05:03:59;12.12;118.99
7942;HTU21D;4016;50.758;7.150;2022-08-21T05:09:01;12.16;118.99
7942;HTU21D;4016;50.758;7.150;2022-08-21T05:14:01;12.18;118.99
7942;HTU21D;4016;50.758;7.150;2022-08-21T05:19:02;12.26;118.99
7942;HTU21D;4016;50.758;7.150;2022-08-21T05:24:02;12.34;118.99
7942;HTU21D;4016;50.758;7.150;2022-08-21T05:29:03;12.48;118.99
7942;HTU21D;4016;50.758;7.150;2022-08-21T05:34:05;12.62;118.99
7942;HTU21D;4016;50.758;7.150;2022-08-21T05:39:06;12.84;118.99
7942;HTU21D;4016;50.758;7.150;2022-08-21T05:44:06;13.26;118.99
7942;HTU21D;4016;50.758;7.150;2022-08-21T05:49:07;13.44;118.99
7942;HTU21D;4016;50.758;7.150;2022-08-21T05:54:08;13.60;118.99
7942;HTU21D;4016;50.758;7.150;2022-08-21T05:59:08;13.99;118.75
7942;HTU21D;4016;50.758;7.150;2022-08-21T06:04:08;14.26;117.56
7942;HTU21D;4016;50.758;7.150;2022-08-21T06:09:09;14.19;118.45
7942;HTU21D;4016;50.758;7.150;2022-08-21T06:14:09;14.30;118.51
7942;HTU21D;4016;50.758;7.150;2022-08-21T06:19:10;14.56;117.32
7942;HTU21D;4016;50.758;7.150;2022-08-21T06:24:10;14.97;116.12
7942;HTU21D;4016;50.758;7.150;2022-08-21T06:29:12;14.99;116.89
7942;HTU21D;4016;50.758;7.150;2022-08-21T06:34:17;15.24;117.41
7942;HTU21D;4016;50.758;7.150;2022-08-21T06:39:17;15.53;116.58
7942;HTU21D;4016;50.758;7.150;2022-08-21T06:44:18;15.82;114.35
7942;HTU21D;4016;50.758;7.150;2022-08-21T06:49:19;16.11;111.99
7942;HTU21D;4016;50.758;7.150;2022-08-21T06:54:19;16.45;109.22
7942;HTU21D;4016;50.758;7.150;2022-08-21T06:59:19;16.85;105.72
7942;HTU21D;4016;50.758;7.150;2022-08-21T07:04:20;17.25;103.12
7942;HTU21D;4016;50.758;7.150;2022-08-21T07:09:20;17.65;100.09
7942;HTU21D;4016;50.758;7.150;2022-08-21T07:14:21;18.06;98.41
7942;HTU21D;4016;50.758;7.150;2022-08-21T07:19:21;18.58;95.72
7942;HTU21D;4016;50.758;7.150;2022-08-21T07:24:22;19.26;90.83
7942;HTU21D;4016;50.758;7.150;2022-08-21T07:29:22;19.85;88.28
7942;HTU21D;4016;50.758;7.150;2022-08-21T07:34:22;20.49;84.40
7942;HTU21D;4016;50.758;7.150;2022-08-21T07:39:23;20.98;79.52
7942;HTU21D;4016;50.758;7.150;2022-08-21T07:44:23;21.52;78.20
7942;HTU21D;4016;50.758;7.150;2022-08-21T07:49:23;21.98;73.82
7942;HTU21D;4016;50.758;7.150;2022-08-21T07:54:24;22.43;71.56
7942;HTU21D;4016;50.758;7.150;2022-08-21T07:59:24;22.94;68.81
7942;HTU21D;4016;50.758;7.150;2022-08-21T08:04:25;23.25;64.22
7942;HTU21D;4016;50.758;7.150;2022-08-21T08:09:25;23.66;60.35
7942;HTU21D;4016;50.758;7.150;2022-08-21T08:14:26;23.92;57.46
7942;HTU21D;4016;50.758;7.150;2022-08-21T08:19:26;24.27;55.87
7942;HTU21D;4016;50.758;7.150;2022-08-21T08:24:27;24.50;54.52
7942;HTU21D;4016;50.758;7.150;2022-08-21T08:29:27;24.74;53.93
7942;HTU21D;4016;50.758;7.150;2022-08-21T08:34:30;24.98;52.62
7942;HTU21D;4016;50.758;7.150;2022-08-21T08:39:30;24.98;51.07
7942;HTU21D;4016;50.758;7.150;2022-08-21T08:44:31;24.68;51.46
7942;HTU21D;4016;50.758;7.150;2022-08-21T08:49:37;24.91;50.70
7942;HTU21D;4016;50.758;7.150;2022-08-21T08:54:45;25.09;49.11
7942;HTU21D;4016;50.758;7.150;2022-08-21T08:59:55;25.19;48.05
7942;HTU21D;4016;50.758;7.150;2022-08-21T09:04:56;25.58;47.34
7942;HTU21D;4016;50.758;7.150;2022-08-21T09:15:47;25.45;46.61
7942;HTU21D;4016;50.758;7.150;2022-08-21T09:21:15;25.45;46.38
7942;HTU21D;4016;50.758;7.150;2022-08-21T09:26:19;25.83;45.92
7942;HTU21D;4016;50.758;7.150;2022-08-21T09:31:32;25.96;44.34
7942;HTU21D;4016;50.758;7.150;2022-08-21T09:36:44;26.10;44.87
7942;HTU21D;4016;50.758;7.150;2022-08-21T09:41:45;26.17;44.05
7942;HTU21D;4016;50.758;7.150;2022-08-21T09:46:52;25.96;45.44
7942;HTU21D;4016;50.758;7.150;2022-08-21T09:51:52;25.90;45.53
7942;HTU21D;4016;50.758;7.150;2022-08-21T09:56:58;25.96;44.16
7942;HTU21D;4016;50.758;7.150;2022-08-21T10:02:27;26.03;45.22
7942;HTU21D;4016;50.758;7.150;2022-08-21T10:07:30;26.28;43.87
7942;HTU21D;4016;50.758;7.150;2022-08-21T10:23:15;26.26;42.52
7942;HTU21D;4016;50.758;7.150;2022-08-21T10:28:34;25.76;43.42
7942;HTU21D;4016;50.758;7.150;2022-08-21T10:33:52;25.81;44.49
7942;HTU21D;4016;50.758;7.150;2022-08-21T10:39:12;26.31;42.48
7942;HTU21D;4016;50.758;7.150;2022-08-21T10:44:35;26.37;42.25
7942;HTU21D;4016;50.758;7.150;2022-08-21T10:49:58;26.60;40.86
7942;HTU21D;4016;50.758;7.150;2022-08-21T10:55:08;26.87;39.62
7942;HTU21D;4016;50.758;7.150;2022-08-21T11:00:14;26.80;39.81
7942;HTU21D;4016;50.758;7.150;2022-08-21T11:05:29;27.08;38.78
7942;HTU21D;4016;50.758;7.150;2022-08-21T11:10:40;27.30;37.42
7942;HTU21D;4016;50.758;7.150;2022-08-21T11:15:58;27.66;36.47
7942;HTU21D;4016;50.758;7.150;2022-08-21T11:21:17;27.94;35.86
7942;HTU21D;4016;50.758;7.150;2022-08-21T11:26:34;28.17;34.24
7942;HTU21D;4016;50.758;7.150;2022-08-21T11:48:00;29.35;32.02
7942;HTU21D;4016;50.758;7.150;2022-08-21T11:58:25;29.45;32.10
7942;HTU21D;4016;50.758;7.150;2022-08-21T12:03:29;29.57;32.26
7942;HTU21D;4016;50.758;7.150;2022-08-21T12:08:32;29.90;31.20
7942;HTU21D;4016;50.758;7.150;2022-08-21T12:13:39;30.12;31.22
7942;HTU21D;4016;50.758;7.150;2022-08-21T12:18:41;30.28;30.41
7942;HTU21D;4016;50.758;7.150;2022-08-21T12:24:00;30.59;28.77
7942;HTU21D;4016;50.758;7.150;2022-08-21T12:29:26;30.42;29.11
7942;HTU21D;4016;50.758;7.150;2022-08-21T12:34:37;30.62;28.83
7942;HTU21D;4016;50.758;7.150;2022-08-21T12:39:43;30.15;29.18
7942;HTU21D;4016;50.758;7.150;2022-08-21T12:44:54;30.62;27.63
7942;HTU21D;4016;50.758;7.150;2022-08-21T12:50:03;31.09;28.07
7942;HTU21D;4016;50.758;7.150;2022-08-21T12:55:05;31.35;26.65
7942;HTU21D;4016;50.758;7.150;2022-08-21T13:00:08;31.42;27.29
7942;HTU21D;4016;50.758;7.150;2022-08-21T13:05:16;31.64;25.86
7942;HTU21D;4016;50.758;7.150;2022-08-21T13:10:26;31.73;26.97
7942;HTU21D;4016;50.758;7.150;2022-08-21T13:15:32;32.28;25.17
7942;HTU21D;4016;50.758;7.150;2022-08-21T13:20:36;31.95;26.12
7942;HTU21D;4016;50.758;7.150;2022-08-21T13:25:38;32.20;25.48
7942;HTU21D;4016;50.758;7.150;2022-08-21T13:30:44;31.74;26.40
7942;HTU21D;4016;50.758;7.150;2022-08-21T13:41:22;31.87;26.21
7942;HTU21D;4016;50.758;7.150;2022-08-21T13:46:28;32.31;24.47
7942;HTU21D;4016;50.758;7.150;2022-08-21T13:51:30;32.37;24.88
7942;HTU21D;4016;50.758;7.150;2022-08-21T13:56:42;31.98;25.49
7942;HTU21D;4016;50.758;7.150;2022-08-21T14:01:53;31.25;27.60
7942;HTU21D;4016;50.758;7.150;2022-08-21T14:06:59;30.63;28.37
7942;HTU21D;4016;50.758;7.150;2022-08-21T14:12:10;31.02;28.87
7942;HTU21D;4016;50.758;7.150;2022-08-21T14:17:27;30.95;28.00
7942;HTU21D;4016;50.758;7.150;2022-08-21T14:27:44;30.57;29.59
7942;HTU21D;4016;50.758;7.150;2022-08-21T14:32:45;30.54;28.99
7942;HTU21D;4016;50.758;7.150;2022-08-21T14:37:46;30.79;28.15
7942;HTU21D;4016;50.758;7.150;2022-08-21T14:42:47;30.34;29.28
7942;HTU21D;4016;50.758;7.150;2022-08-21T14:47:49;29.70;31.09
7942;HTU21D;4016;50.758;7.150;2022-08-21T14:52:50;29.62;31.25
7942;HTU21D;4016;50.758;7.150;2022-08-21T14:57:52;29.16;31.75
7942;HTU21D;4016;50.758;7.150;2022-08-21T15:02:52;29.04;31.92
7942;HTU21D;4016;50.758;7.150;2022-08-21T15:07:53;28.73;33.59
7942;HTU21D;4016;50.758;7.150;2022-08-21T15:12:53;29.00;33.34
7942;HTU21D;4016;50.758;7.150;2022-08-21T15:17:54;29.03;33.06
7942;HTU21D;4016;50.758;7.150;2022-08-21T15:22:54;29.05;33.46
7942;HTU21D;4016;50.758;7.150;2022-08-21T15:27:55;28.86;33.97
7942;HTU21D;4016;50.758;7.150;2022-08-21T15:32:56;28.30;34.44
7942;HTU21D;4016;50.758;7.150;2022-08-21T15:37:56;28.26;35.16
7942;HTU21D;4016;50.758;7.150;2022-08-21T15:43:00;28.25;35.56
7942;HTU21D;4016;50.758;7.150;2022-08-21T15:48:00;27.99;35.94
7942;HTU21D;4016;50.758;7.150;2022-08-21T15:53:01;27.72;36.85
7942;HTU21D;4016;50.758;7.150;2022-08-21T15:58:03;27.49;36.80
7942;HTU21D;4016;50.758;7.150;2022-08-21T16:03:05;27.22;37.24
7942;HTU21D;4016;50.758;7.150;2022-08-21T16:08:07;26.87;38.12
7942;HTU21D;4016;50.758;7.150;2022-08-21T16:13:32;26.78;38.34
7942;HTU21D;4016;50.758;7.150;2022-08-21T16:18:31;26.97;37.55
7942;HTU21D;4016;50.758;7.150;2022-08-21T16:23:33;27.08;37.08
7942;HTU21D;4016;50.758;7.150;2022-08-21T16:28:36;27.08;36.77
7942;HTU21D;4016;50.758;7.150;2022-08-21T16:33:42;26.89;37.25
7942;HTU21D;4016;50.758;7.150;2022-08-21T16:38:43;26.92;37.45
7942;HTU21D;4016;50.758;7.150;2022-08-21T16:43:44;27.00;37.82
7942;HTU21D;4016;50.758;7.150;2022-08-21T16:48:45;26.89;37.08
7942;HTU21D;4016;50.758;7.150;2022-08-21T16:53:46;26.61;37.99
7942;HTU21D;4016;50.758;7.150;2022-08-21T16:58:48;26.86;37.97
7942;HTU21D;4016;50.758;7.150;2022-08-21T17:03:50;26.50;38.24
7942;HTU21D;4016;50.758;7.150;2022-08-21T17:08:50;26.48;38.50
7942;HTU21D;4016;50.758;7.150;2022-08-21T17:13:52;26.36;38.78
7942;HTU21D;4016;50.758;7.150;2022-08-21T17:18:52;26.20;39.07
7942;HTU21D;4016;50.758;7.150;2022-08-21T17:23:53;25.95;39.91
7942;HTU21D;4016;50.758;7.150;2022-08-21T17:28:53;25.99;39.85
7942;HTU21D;4016;50.758;7.150;2022-08-21T17:33:53;26.08;39.15
7942;HTU21D;4016;50.758;7.150;2022-08-21T17:38:55;25.96;37.96
7942;HTU21D;4016;50.758;7.150;2022-08-21T17:43:55;25.71;38.40
7942;HTU21D;4016;50.758;7.150;2022-08-21T17:48:56;25.66;38.33
7942;HTU21D;4016;50.758;7.150;2022-08-21T17:53:57;25.59;38.84
7942;HTU21D;4016;50.758;7.150;2022-08-21T17:58:57;25.40;39.09
7942;HTU21D;4016;50.758;7.150;2022-08-21T18:03:58;25.29;39.53
7942;HTU21D;4016;50.758;7.150;2022-08-21T18:08:58;25.25;39.47
7942;HTU21D;4016;50.758;7.150;2022-08-21T18:14:00;25.05;40.49
7942;HTU21D;4016;50.758;7.150;2022-08-21T18:19:04;24.76;41.90
7942;HTU21D;4016;50.758;7.150;2022-08-21T18:24:05;24.61;42.45
7942;HTU21D;4016;50.758;7.150;2022-08-21T18:29:08;24.53;42.85
7942;HTU21D;4016;50.758;7.150;2022-08-21T18:34:16;24.34;43.62
7942;HTU21D;4016;50.758;7.150;2022-08-21T18:39:20;24.18;44.10
7942;HTU21D;4016;50.758;7.150;2022-08-21T18:44:22;24.05;44.33
7942;HTU21D;4016;50.758;7.150;2022-08-21T18:49:25;24.14;45.00
7942;HTU21D;4016;50.758;7.150;2022-08-21T18:54:26;24.00;46.35
7942;HTU21D;4016;50.758;7.150;2022-08-21T18:59:28;23.69;47.71
7942;HTU21D;4016;50.758;7.150;2022-08-21T19:04:28;23.37;48.89
7942;HTU21D;4016;50.758;7.150;2022-08-21T19:09:29;23.42;48.80
7942;HTU21D;4016;50.758;7.150;2022-08-21T19:14:30;23.20;48.89
7942;HTU21D;4016;50.758;7.150;2022-08-21T19:19:30;22.99;49.93
7942;HTU21D;4016;50.758;7.150;2022-08-21T19:24:31;22.79;50.53
7942;HTU21D;4016;50.758;7.150;2022-08-21T19:29:31;22.61;51.15
7942;HTU21D;4016;50.758;7.150;2022-08-21T19:34:34;22.51;51.40
7942;HTU21D;4016;50.758;7.150;2022-08-21T19:39:36;22.40;51.99
7942;HTU21D;4016;50.758;7.150;2022-08-21T19:44:38;22.50;51.24
7942;HTU21D;4016;50.758;7.150;2022-08-21T19:49:41;22.27;52.08
7942;HTU21D;4016;50.758;7.150;2022-08-21T19:54:43;22.14;52.54
7942;HTU21D;4016;50.758;7.150;2022-08-21T19:59:44;22.28;51.88
7942;HTU21D;4016;50.758;7.150;2022-08-21T20:04:45;22.11;52.40
7942;HTU21D;4016;50.758;7.150;2022-08-21T20:09:46;21.79;53.69
7942;HTU21D;4016;50.758;7.150;2022-08-21T20:14:47;21.66;54.93
7942;HTU21D;4016;50.758;7.150;2022-08-21T20:19:50;21.48;56.49
7942;HTU21D;4016;50.758;7.150;2022-08-21T20:24:51;21.36;57.60
7942;HTU21D;4016;50.758;7.150;2022-08-21T20:29:51;21.21;59.36
7942;HTU21D;4016;50.758;7.150;2022-08-21T20:34:52;21.11;60.31
7942;HTU21D;4016;50.758;7.150;2022-08-21T20:39:52;21.00;61.19
7942;HTU21D;4016;50.758;7.150;2022-08-21T20:44:53;20.87;61.59
7942;HTU21D;4016;50.758;7.150;2022-08-21T20:49:59;20.76;62.78
7942;HTU21D;4016;50.758;7.150;2022-08-21T20:55:07;20.68;63.45
7942;HTU21D;4016;50.758;7.150;2022-08-21T21:00:13;20.63;63.28
7942;HTU21D;4016;50.758;7.150;2022-08-21T21:05:23;20.48;64.50
7942;HTU21D;4016;50.758;7.150;2022-08-21T21:15:53;20.31;65.99
7942;HTU21D;4016;50.758;7.150;2022-08-21T21:21:07;20.24;67.19
7942;HTU21D;4016;50.758;7.150;2022-08-21T21:26:25;20.15;66.98
7942;HTU21D;4016;50.758;7.150;2022-08-21T21:31:27;20.09;66.85
7942;HTU21D;4016;50.758;7.150;2022-08-21T21:41:34;19.98;69.28
7942;HTU21D;4016;50.758;7.150;2022-08-21T21:47:48;19.86;69.89
7942;HTU21D;4016;50.758;7.150;2022-08-21T21:52:43;19.76;70.80
7942;HTU21D;4016;50.758;7.150;2022-08-21T22:13:49;19.54;74.39
7942;HTU21D;4016;50.758;7.150;2022-08-21T22:18:55;19.37;76.61
7942;HTU21D;4016;50.758;7.150;2022-08-21T22:24:07;19.25;77.72
7942;HTU21D;4016;50.758;7.150;2022-08-21T22:29:15;19.14;78.31
7942;HTU21D;4016;50.758;7.150;2022-08-21T22:34:17;19.07;80.52
7942;HTU21D;4016;50.758;7.150;2022-08-21T22:39:30;18.98;80.34
7942;HTU21D;4016;50.758;7.150;2022-08-21T22:44:31;18.91;81.08
7942;HTU21D;4016;50.758;7.150;2022-08-21T22:49:41;18.83;81.21
7942;HTU21D;4016;50.758;7.150;2022-08-21T22:54:43;18.73;81.92
7942;HTU21D;4016;50.758;7.150;2022-08-21T23:00:13;18.66;82.04
7942;HTU21D;4016;50.758;7.150;2022-08-21T23:05:31;18.55;83.36
7942;HTU21D;4016;50.758;7.150;2022-08-21T23:10:37;18.44;84.97
7942;HTU21D;4016;50.758;7.150;2022-08-21T23:16:03;18.35;86.32
7942;HTU21D;4016;50.758;7.150;2022-08-21T23:21:11;18.25;86.28
7942;HTU21D;4016;50.758;7.150;2022-08-21T23:26:20;18.07;87.88
7942;HTU21D;4016;50.758;7.150;2022-08-21T23:31:42;17.92;88.60
7942;HTU21D;4016;50.758;7.150;2022-08-21T23:36:59;17.80;89.03
7942;HTU21D;4016;50.758;7.150;2022-08-21T23:58:47;17.37;91.19
